Historical Data

TheSutherlands

Weather at Humberside Airport

Current Weather from Humberside Airport

The information displayed on this page is from the METAR reports produced by Humberside Airport. Note that there are times when these are not generated.

Weather Report

Coded Weather Report: 2022/05/28 22:50 EGNJ 282250Z AUTO 33004KT 9999 NCD 08/05 Q1024

Report issued: 2022/05/28 at 22:50 UTC

Weather: Code: AUTO
Wind: light breeze from the northwest (330 degrees) at 4 knots (5 mph, 7 kph, Force 2)
Visibility: 10km or more
Weather: Code: NCD
Temperature: 8 C
Dewpoint: 5 C
Humidity: 81%
Pressure: 1024 hPa